createdAt,value
2022-08-26T00:01:29.653Z,98965.53
2022-08-26T00:03:59.092Z,98959.91
2022-08-26T00:06:28.044Z,98967.97
2022-08-26T00:08:56.708Z,98962.03
2022-08-26T00:11:26.920Z,98960.34
2022-08-26T00:13:55.619Z,98958.50
2022-08-26T00:16:28.163Z,98956.91
2022-08-26T00:18:57.591Z,98949.84
2022-08-26T00:21:26.658Z,98946.69
2022-08-26T00:23:55.752Z,98948.69
2022-08-26T00:26:24.830Z,98945.84
2022-08-26T00:28:57.648Z,98944.00
2022-08-26T00:31:27.886Z,98943.88
2022-08-26T00:33:59.829Z,98940.19
2022-08-26T00:36:29.775Z,98935.50
2022-08-26T00:38:58.556Z,98948.81
2022-08-26T00:41:27.161Z,98947.13
2022-08-26T00:43:56.247Z,98940.75
2022-08-26T00:46:32.306Z,98942.72
2022-08-26T00:49:12.034Z,98939.78
2022-08-26T00:51:48.837Z,98941.63
2022-08-26T00:54:20.497Z,98933.25
2022-08-26T00:56:56.095Z,98942.03
2022-08-26T00:59:26.352Z,98940.03
2022-08-26T01:01:58.095Z,98946.25
2022-08-26T01:04:27.280Z,98946.41
2022-08-26T01:06:56.471Z,98939.34
2022-08-26T01:09:25.284Z,98945.56
2022-08-26T01:11:57.568Z,98944.59
2022-08-26T01:14:29.940Z,98939.91
2022-08-26T01:17:02.136Z,98945.16
2022-08-26T01:19:39.960Z,98939.47
2022-08-26T01:22:13.720Z,98932.25
2022-08-26T01:24:44.360Z,98933.97
2022-08-26T01:27:17.660Z,98938.63
2022-08-26T01:29:48.827Z,98940.47
2022-08-26T01:32:23.347Z,98944.59
2022-08-26T01:34:52.742Z,98939.47
2022-08-26T01:37:24.811Z,98935.94
2022-08-26T01:39:56.820Z,98936.91
2022-08-26T01:42:28.551Z,98929.69
2022-08-26T01:45:02.051Z,98930.84
2022-08-26T01:47:34.696Z,98935.50
2022-08-26T01:50:07.036Z,98932.09
2022-08-26T01:52:40.684Z,98920.06
2022-08-26T01:55:15.449Z,98925.72
2022-08-26T01:58:05.744Z,98920.78
2022-08-26T02:00:35.614Z,98930.00
2022-08-26T02:03:21.513Z,98928.28
2022-08-26T02:05:56.496Z,98927.56
2022-08-26T02:08:32.108Z,98930.69
2022-08-26T02:11:02.931Z,98933.09
2022-08-26T02:13:34.336Z,98935.94
2022-08-26T02:16:04.008Z,98932.81
2022-08-26T02:18:38.315Z,98926.72
2022-08-26T02:21:08.598Z,98927.56
2022-08-26T02:23:37.311Z,98934.38
2022-08-26T02:26:12.053Z,98932.69
2022-08-26T02:28:49.838Z,98923.78
2022-08-26T02:31:18.593Z,98928.97
2022-08-26T02:33:47.421Z,98931.66
2022-08-26T02:36:20.777Z,98923.59
2022-08-26T02:38:49.723Z,98926.09
2022-08-26T02:41:21.823Z,98916.94
2022-08-26T02:43:51.810Z,98917.78
2022-08-26T02:46:21.577Z,98916.31
2022-08-26T02:48:57.303Z,98920.59
2022-08-26T02:51:26.779Z,98918.03
2022-08-26T02:53:55.554Z,98919.63
2022-08-26T02:56:25.928Z,98918.03
2022-08-26T02:58:56.084Z,98916.31
2022-08-26T03:01:28.230Z,98921.69
2022-08-26T03:03:57.695Z,98922.44
2022-08-26T03:06:26.804Z,98921.47
2022-08-26T03:08:55.910Z,98921.34
2022-08-26T03:11:29.616Z,98922.44
2022-08-26T03:14:01.801Z,98924.25
2022-08-26T03:16:34.037Z,98921.97
2022-08-26T03:19:03.577Z,98920.84
2022-08-26T03:21:33.354Z,98923.53
2022-08-26T03:24:01.957Z,98923.84
2022-08-26T03:26:32.777Z,98925.97
2022-08-26T03:29:18.424Z,98919.16
2022-08-26T03:31:47.347Z,98921.97
2022-08-26T03:34:16.520Z,98932.16
2022-08-26T03:36:44.976Z,98937.69
2022-08-26T03:39:15.224Z,98935.69
2022-08-26T03:41:45.568Z,98944.31
2022-08-26T03:44:14.533Z,98938.88
2022-08-26T03:46:43.981Z,98942.88
2022-08-26T03:49:12.646Z,98938.38
2022-08-26T03:51:43.791Z,98938.22
2022-08-26T03:54:13.233Z,98937.47
2022-08-26T03:56:41.721Z,98934.91
2022-08-26T03:59:12.033Z,98934.91
2022-08-26T04:01:40.661Z,98929.13
2022-08-26T04:04:09.278Z,98929.28
2022-08-26T04:06:44.738Z,98930.81
2022-08-26T04:09:16.108Z,98930.13
2022-08-26T04:11:45.947Z,98928.81
2022-08-26T04:14:22.548Z,98936.50
2022-08-26T04:16:52.120Z,98938.59
2022-08-26T04:19:22.072Z,98939.88
2022-08-26T04:21:53.353Z,98942.16
2022-08-26T04:24:23.806Z,98945.84
2022-08-26T04:26:52.685Z,98946.56
2022-08-26T04:29:25.401Z,98938.78
2022-08-26T04:31:56.063Z,98938.50
2022-08-26T04:34:28.369Z,98943.31
2022-08-26T04:36:58.186Z,98945.13
2022-08-26T04:39:27.970Z,98941.75
2022-08-26T04:41:57.800Z,98955.09
2022-08-26T04:44:30.858Z,98955.66
2022-08-26T04:46:59.719Z,98942.31
2022-08-26T04:49:28.600Z,98944.47
2022-08-26T04:52:05.072Z,98942.50
2022-08-26T04:54:33.936Z,98938.88
2022-08-26T04:57:02.593Z,98940.16
2022-08-26T04:59:35.962Z,98945.69
2022-08-26T05:02:08.071Z,98941.91
2022-08-26T05:04:37.710Z,98936.50
2022-08-26T05:07:07.855Z,98930.00
2022-08-26T05:09:40.440Z,98936.06
2022-08-26T05:12:09.330Z,98926.88
2022-08-26T05:14:39.295Z,98925.03
2022-08-26T05:17:08.626Z,98923.22
2022-08-26T05:19:37.448Z,98924.94
2022-08-26T05:22:13.194Z,98919.94
2022-08-26T05:24:43.258Z,98925.91
2022-08-26T05:27:12.587Z,98918.38
2022-08-26T05:29:42.635Z,98920.94
2022-08-26T05:32:12.913Z,98921.94
2022-08-26T05:34:43.012Z,98922.66
2022-08-26T05:37:11.550Z,98921.91
2022-08-26T05:39:43.543Z,98920.75
2022-08-26T05:42:20.089Z,98925.25
2022-08-26T05:44:56.081Z,98921.91
2022-08-26T05:47:25.328Z,98925.56
2022-08-26T05:49:55.411Z,98926.53
2022-08-26T05:52:25.889Z,98928.69
2022-08-26T05:54:55.153Z,98928.69
2022-08-26T05:57:23.650Z,98931.16
2022-08-26T05:59:52.753Z,98930.63
2022-08-26T06:02:22.866Z,98930.97
2022-08-26T06:04:51.844Z,98933.47
2022-08-26T06:07:40.542Z,98932.41
2022-08-26T06:10:31.580Z,98928.41
2022-08-26T06:13:04.551Z,98925.59
2022-08-26T06:15:43.141Z,98929.50
2022-08-26T06:18:15.235Z,98928.31
2022-08-26T06:20:54.596Z,98934.63
2022-08-26T06:23:45.831Z,98930.69
2022-08-26T06:26:15.634Z,98938.78
2022-08-26T06:28:45.513Z,98944.16
2022-08-26T06:31:15.412Z,98935.19
2022-08-26T06:33:46.213Z,98940.69
2022-08-26T06:36:19.679Z,98941.38
2022-08-26T06:38:51.339Z,98942.34
2022-08-26T06:41:21.007Z,98939.63
2022-08-26T06:43:49.714Z,98935.47
2022-08-26T06:46:20.697Z,98935.50
2022-08-26T06:48:51.515Z,98932.84
2022-08-26T06:51:22.658Z,98937.16
2022-08-26T06:53:54.471Z,98929.34
2022-08-26T06:56:26.558Z,98937.50
2022-08-26T06:58:55.837Z,98943.19
2022-08-26T07:01:26.919Z,98937.59
2022-08-26T07:03:58.813Z,98944.66
2022-08-26T07:06:29.247Z,98944.19
2022-08-26T07:09:04.073Z,98946.84
2022-08-26T07:11:34.376Z,98939.19
2022-08-26T07:14:03.119Z,98943.38
2022-08-26T07:16:31.969Z,98939.16
2022-08-26T07:19:03.615Z,98946.03
2022-08-26T07:21:41.605Z,98946.50
2022-08-26T07:24:11.530Z,98949.34
2022-08-26T07:26:43.143Z,98951.09
2022-08-26T07:29:12.789Z,98945.19
2022-08-26T07:31:42.482Z,98936.75
2022-08-26T07:34:13.964Z,98935.88
2022-08-26T07:36:42.882Z,98941.97
2022-08-26T07:39:11.322Z,98937.94
2022-08-26T07:41:39.876Z,98940.50
2022-08-26T07:44:08.777Z,98936.91
2022-08-26T07:46:38.748Z,98938.72
2022-08-26T07:49:08.176Z,98935.97
2022-08-26T07:51:39.181Z,98939.19
2022-08-26T07:54:08.223Z,98938.66
2022-08-26T07:56:36.729Z,98934.00
2022-08-26T07:59:13.801Z,98940.25
2022-08-26T08:01:44.882Z,98932.34
2022-08-26T08:04:14.476Z,98937.19
2022-08-26T08:06:45.345Z,98933.31
2022-08-26T08:09:16.042Z,98934.41
2022-08-26T08:11:45.883Z,98930.72
2022-08-26T08:14:18.237Z,98932.53
2022-08-26T08:16:54.684Z,98937.84
2022-08-26T08:19:36.954Z,98936.13
2022-08-26T08:22:17.335Z,98926.75
2022-08-26T08:24:50.009Z,98924.00
2022-08-26T08:27:24.129Z,98921.94
2022-08-26T08:29:54.367Z,98922.41
2022-08-26T08:32:24.305Z,98921.88
2022-08-26T08:34:53.009Z,98918.41
2022-08-26T08:37:23.347Z,98917.06
2022-08-26T08:39:52.445Z,98914.63
2022-08-26T08:42:38.870Z,98918.31
2022-08-26T08:45:12.267Z,98911.25
2022-08-26T08:47:45.644Z,98916.28
2022-08-26T08:50:23.906Z,98919.84
2022-08-26T08:53:03.868Z,98915.66
2022-08-26T08:55:48.813Z,98920.75
2022-08-26T08:58:23.407Z,98919.78
2022-08-26T09:00:59.798Z,98917.56
2022-08-26T09:03:45.811Z,98924.72
2022-08-26T09:06:18.928Z,98920.88
2022-08-26T09:08:50.808Z,98908.94
2022-08-26T09:11:21.117Z,98908.25
2022-08-26T09:13:52.425Z,98910.78
2022-08-26T09:16:25.379Z,98908.41
2022-08-26T09:19:04.836Z,98906.38
2022-08-26T09:21:34.097Z,98906.38
2022-08-26T09:24:04.497Z,98899.28
2022-08-26T09:26:45.559Z,98899.16
2022-08-26T09:29:24.276Z,98895.81
2022-08-26T09:31:53.993Z,98895.22
2022-08-26T09:34:25.549Z,98897.53
2022-08-26T09:36:56.147Z,98895.31
2022-08-26T09:39:44.126Z,98896.59
2022-08-26T09:42:22.406Z,98894.72
2022-08-26T09:44:57.417Z,98887.22
2022-08-26T09:47:31.809Z,98893.44
2022-08-26T09:50:09.816Z,98896.41
2022-08-26T09:52:42.810Z,98885.78
2022-08-26T09:55:21.624Z,98882.81
2022-08-26T09:57:52.657Z,98887.91
2022-08-26T10:00:27.473Z,98883.25
2022-08-26T10:02:58.114Z,98878.19
2022-08-26T10:05:44.009Z,98873.03
2022-08-26T10:08:26.414Z,98874.94
2022-08-26T10:10:58.214Z,98868.47
2022-08-26T10:13:33.740Z,98874.31
2022-08-26T10:16:12.051Z,98871.63
2022-08-26T10:18:46.103Z,98867.69
2022-08-26T10:21:19.437Z,98864.59
2022-08-26T10:23:52.195Z,98860.19
2022-08-26T10:26:29.131Z,98861.88
2022-08-26T10:29:07.274Z,98857.50
2022-08-26T10:31:40.966Z,98861.75
2022-08-26T10:34:12.369Z,98852.91
2022-08-26T10:37:14.511Z,98858.66
2022-08-26T10:39:49.709Z,98854.28
2022-08-26T10:42:33.481Z,98860.06
2022-08-26T10:45:12.030Z,98852.91
2022-08-26T10:47:49.768Z,98846.66
2022-08-26T10:50:19.383Z,98851.19
2022-08-26T10:53:01.222Z,98858.22
2022-08-26T10:55:37.348Z,98844.13
2022-08-26T10:58:26.662Z,98842.72
2022-08-26T11:01:22.857Z,98839.06
2022-08-26T11:04:04.101Z,98838.19
2022-08-26T11:06:33.151Z,98825.59
2022-08-26T11:09:08.541Z,98830.59
2022-08-26T11:11:46.945Z,98831.44
2022-08-26T11:14:53.124Z,98830.25
2022-08-26T11:17:57.077Z,98822.72
2022-08-26T11:20:41.866Z,98829.94
2022-08-26T11:23:41.585Z,98829.13
2022-08-26T11:26:32.795Z,98832.34
2022-08-26T11:29:13.104Z,98822.75
2022-08-26T11:31:58.718Z,98817.06
2022-08-26T11:34:56.389Z,98826.03
2022-08-26T11:37:33.451Z,98815.94
2022-08-26T11:40:04.983Z,98816.41
2022-08-26T11:42:40.596Z,98811.41
2022-08-26T11:45:20.637Z,98812.94
2022-08-26T11:47:52.167Z,98816.38
2022-08-26T11:50:26.034Z,98817.97
2022-08-26T11:52:57.130Z,98808.47
2022-08-26T11:55:26.047Z,98805.34
2022-08-26T11:57:57.347Z,98795.81
2022-08-26T12:00:33.491Z,98796.28
2022-08-26T12:03:09.454Z,98794.00
2022-08-26T12:05:44.517Z,98793.66
2022-08-26T12:08:17.704Z,98793.06
2022-08-26T12:10:46.628Z,98790.19
2022-08-26T12:13:23.174Z,98787.00
2022-08-26T12:15:57.262Z,98788.50
2022-08-26T12:18:34.367Z,98780.28
2022-08-26T12:21:12.661Z,98774.97
2022-08-26T12:23:44.964Z,98772.31
2022-08-26T12:26:22.524Z,98770.69
2022-08-26T12:28:56.059Z,98761.53
2022-08-26T12:31:30.206Z,98762.72
2022-08-26T12:34:04.143Z,98760.34
2022-08-26T12:36:37.424Z,98742.63
2022-08-26T12:39:12.161Z,98743.19
2022-08-26T12:41:52.996Z,98744.13
2022-08-26T12:44:53.180Z,98745.44
2022-08-26T12:47:28.772Z,98744.72
2022-08-26T12:50:24.096Z,98753.97
2022-08-26T12:52:57.483Z,98739.88
2022-08-26T12:55:35.409Z,98745.38
2022-08-26T12:58:26.933Z,98738.19
2022-08-26T13:00:57.049Z,98740.53
2022-08-26T13:03:43.903Z,98734.41
2022-08-26T13:06:34.199Z,98733.19
2022-08-26T13:09:06.198Z,98732.25
2022-08-26T13:11:56.363Z,98726.91
2022-08-26T13:14:26.045Z,98726.44
2022-08-26T13:16:54.876Z,98718.81
2022-08-26T13:19:26.856Z,98721.69
2022-08-26T13:21:59.302Z,98714.75
2022-08-26T13:24:32.256Z,98721.72
2022-08-26T13:27:01.728Z,98717.56
2022-08-26T13:29:30.296Z,98716.34
2022-08-26T13:31:59.904Z,98715.31
2022-08-26T13:34:29.349Z,98709.44
2022-08-26T13:36:59.679Z,98705.88
2022-08-26T13:39:28.349Z,98710.31
2022-08-26T13:41:57.156Z,98710.72
2022-08-26T13:44:25.825Z,98701.59
2022-08-26T13:46:54.498Z,98715.56
2022-08-26T13:49:23.344Z,98712.59
2022-08-26T13:51:51.891Z,98707.13
2022-08-26T13:54:22.166Z,98703.88
2022-08-26T13:56:51.713Z,98706.13
2022-08-26T13:59:20.162Z,98701.78
2022-08-26T14:01:49.226Z,98704.19
2022-08-26T14:04:17.941Z,98702.25
2022-08-26T14:06:55.725Z,98704.25
2022-08-26T14:09:25.884Z,98705.91
2022-08-26T14:11:55.230Z,98705.50
2022-08-26T14:14:25.069Z,98708.78
2022-08-26T14:16:59.462Z,98710.56
2022-08-26T14:19:30.651Z,98701.28
2022-08-26T14:22:01.385Z,98694.44
2022-08-26T14:24:31.373Z,98692.28
2022-08-26T14:27:00.308Z,98700.38
2022-08-26T14:29:28.960Z,98698.44
2022-08-26T14:31:59.681Z,98694.53
2022-08-26T14:34:28.698Z,98695.53
2022-08-26T14:36:57.213Z,98693.00
2022-08-26T14:39:26.047Z,98691.06
2022-08-26T14:41:57.708Z,98685.63
2022-08-26T14:44:30.590Z,98690.50
2022-08-26T14:47:01.669Z,98683.13
2022-08-26T14:49:31.549Z,98690.97
2022-08-26T14:52:00.774Z,98693.13
2022-08-26T14:54:29.464Z,98684.94
2022-08-26T14:57:03.734Z,98679.47
2022-08-26T14:59:35.695Z,98682.06
2022-08-26T15:02:05.176Z,98681.56
2022-08-26T15:04:33.995Z,98684.75
2022-08-26T15:07:03.257Z,98677.31
2022-08-26T15:09:34.662Z,98681.31
2022-08-26T15:12:05.773Z,98667.75
2022-08-26T15:14:34.366Z,98668.00
2022-08-26T15:17:03.001Z,98670.06
2022-08-26T15:19:31.708Z,98664.25
2022-08-26T15:22:00.389Z,98658.44
2022-08-26T15:24:31.594Z,98662.88
2022-08-26T15:27:00.375Z,98660.25
2022-08-26T15:29:30.494Z,98659.59
2022-08-26T15:32:01.710Z,98651.41
2022-08-26T15:34:30.213Z,98655.69
2022-08-26T15:36:59.066Z,98656.25
2022-08-26T15:39:27.715Z,98651.50
2022-08-26T15:41:56.648Z,98647.34
2022-08-26T15:44:26.920Z,98652.19
2022-08-26T15:46:58.765Z,98645.50
2022-08-26T15:49:27.834Z,98651.81
2022-08-26T15:51:56.616Z,98659.13
2022-08-26T15:54:25.517Z,98649.75
2022-08-26T15:56:53.976Z,98652.56
2022-08-26T15:59:23.639Z,98653.84
2022-08-26T16:01:52.445Z,98649.09
2022-08-26T16:04:22.537Z,98643.19
2022-08-26T16:06:52.473Z,98646.78
2022-08-26T16:09:23.859Z,98643.31
2022-08-26T16:11:56.288Z,98643.03
2022-08-26T16:14:25.723Z,98641.75
2022-08-26T16:16:56.391Z,98633.59
2022-08-26T16:19:26.334Z,98628.69
2022-08-26T16:21:54.802Z,98636.50
2022-08-26T16:24:28.462Z,98636.25
2022-08-26T16:26:59.164Z,98643.03
2022-08-26T16:29:28.248Z,98640.31
2022-08-26T16:31:56.748Z,98648.06
2022-08-26T16:34:26.550Z,98637.75
2022-08-26T16:36:55.142Z,98648.44
2022-08-26T16:39:23.610Z,98634.25
2022-08-26T16:41:52.063Z,98647.47
2022-08-26T16:44:22.205Z,98646.25
2022-08-26T16:46:50.730Z,98645.47
2022-08-26T16:49:28.899Z,98653.09
2022-08-26T16:51:57.501Z,98656.09
2022-08-26T16:54:26.245Z,98653.00
2022-08-26T16:56:54.757Z,98651.56
2022-08-26T16:59:25.250Z,98663.34
2022-08-26T17:01:53.819Z,98662.38
2022-08-26T17:04:22.423Z,98657.00
2022-08-26T17:06:52.511Z,98656.13
2022-08-26T17:09:21.520Z,98648.16
2022-08-26T17:11:50.332Z,98655.22
2022-08-26T17:14:19.263Z,98650.44
2022-08-26T17:16:51.148Z,98653.16
2022-08-26T17:19:20.827Z,98657.84
2022-08-26T17:21:50.219Z,98661.50
2022-08-26T17:24:20.278Z,98660.72
2022-08-26T17:26:50.792Z,98665.97
2022-08-26T17:29:24.218Z,98661.41
2022-08-26T17:31:53.021Z,98668.69
2022-08-26T17:34:23.138Z,98665.16
2022-08-26T17:36:51.784Z,98664.16
2022-08-26T17:39:21.791Z,98669.28
2022-08-26T17:41:50.293Z,98669.13
2022-08-26T17:44:18.803Z,98669.88
2022-08-26T17:46:47.613Z,98668.47
2022-08-26T17:49:16.208Z,98666.78
2022-08-26T17:51:44.837Z,98672.59
2022-08-26T17:54:13.591Z,98672.31
2022-08-26T17:56:43.504Z,98671.47
2022-08-26T17:59:12.049Z,98667.53
2022-08-26T18:01:41.610Z,98671.53
2022-08-26T18:04:10.268Z,98680.75
2022-08-26T18:06:39.273Z,98679.63
2022-08-26T18:09:07.979Z,98681.53
2022-08-26T18:11:36.447Z,98682.09
2022-08-26T18:14:06.272Z,98676.41
2022-08-26T18:16:38.395Z,98689.16
2022-08-26T18:19:07.703Z,98685.66
2022-08-26T18:21:37.310Z,98683.00
2022-08-26T18:24:09.113Z,98686.16
2022-08-26T18:26:44.594Z,98679.50
2022-08-26T18:29:14.709Z,98691.31
2022-08-26T18:31:43.946Z,98691.66
2022-08-26T18:34:15.397Z,98685.06
2022-08-26T18:36:44.903Z,98692.19
2022-08-26T18:39:15.542Z,98688.66
2022-08-26T18:41:46.625Z,98690.88
2022-08-26T18:44:18.525Z,98689.34
2022-08-26T18:46:47.523Z,98693.63
2022-08-26T18:49:18.451Z,98697.22
2022-08-26T18:51:47.732Z,98698.94
2022-08-26T18:54:16.961Z,98696.13
2022-08-26T18:56:46.270Z,98698.38
2022-08-26T18:59:16.823Z,98701.94
2022-08-26T19:01:50.541Z,98703.66
2022-08-26T19:04:19.730Z,98695.41
2022-08-26T19:06:50.788Z,98693.19
2022-08-26T19:09:21.068Z,98692.03
2022-08-26T19:11:50.240Z,98701.00
2022-08-26T19:14:20.336Z,98693.19
2022-08-26T19:16:52.454Z,98697.28
2022-08-26T19:19:23.823Z,98693.91
2022-08-26T19:21:53.854Z,98702.88
2022-08-26T19:24:23.168Z,98704.53
2022-08-26T19:26:59.979Z,98702.03
2022-08-26T19:29:31.885Z,98708.81
2022-08-26T19:32:00.916Z,98711.38
2022-08-26T19:34:29.676Z,98709.50
2022-08-26T19:36:58.692Z,98703.59
2022-08-26T19:39:28.256Z,98704.81
2022-08-26T19:41:57.307Z,98705.63
2022-08-26T19:44:43.538Z,98707.00
2022-08-26T19:47:15.204Z,98705.97
2022-08-26T19:49:43.763Z,98702.09
2022-08-26T19:52:13.395Z,98701.75
2022-08-26T19:54:41.867Z,98715.41
2022-08-26T19:57:11.639Z,98700.56
2022-08-26T19:59:40.511Z,98710.00
2022-08-26T20:02:11.070Z,98707.78
2022-08-26T20:04:41.975Z,98711.00
2022-08-26T20:07:15.343Z,98716.09
2022-08-26T20:09:47.835Z,98711.84
2022-08-26T20:12:17.428Z,98717.25
2022-08-26T20:14:46.177Z,98721.00
2022-08-26T20:17:16.117Z,98719.63
2022-08-26T20:20:03.613Z,98723.19
2022-08-26T20:22:32.745Z,98722.81
2022-08-26T20:25:01.629Z,98713.53
2022-08-26T20:27:37.707Z,98717.06
2022-08-26T20:30:09.817Z,98713.81
2022-08-26T20:32:39.480Z,98717.13
2022-08-26T20:35:13.096Z,98708.19
2022-08-26T20:37:42.065Z,98718.91
2022-08-26T20:40:13.155Z,98712.16
2022-08-26T20:42:41.784Z,98725.97
2022-08-26T20:45:11.003Z,98722.69
2022-08-26T20:47:39.770Z,98719.22
2022-08-26T20:50:10.229Z,98729.19
2022-08-26T20:52:38.691Z,98723.09
2022-08-26T20:55:08.223Z,98719.84
2022-08-26T20:57:37.376Z,98721.50
2022-08-26T21:00:07.326Z,98724.31
2022-08-26T21:02:36.903Z,98720.97
2022-08-26T21:05:06.176Z,98723.78
2022-08-26T21:07:36.291Z,98724.47
2022-08-26T21:10:05.381Z,98728.25
2022-08-26T21:12:34.348Z,98729.63
2022-08-26T21:15:02.950Z,98723.91
2022-08-26T21:17:31.757Z,98722.13
2022-08-26T21:20:00.248Z,98729.72
2022-08-26T21:22:30.197Z,98725.41
2022-08-26T21:25:00.319Z,98728.25
2022-08-26T21:27:28.753Z,98721.03
2022-08-26T21:29:57.482Z,98725.28
2022-08-26T21:32:26.222Z,98724.59
2022-08-26T21:34:56.724Z,98722.59
2022-08-26T21:37:25.986Z,98732.56
2022-08-26T21:39:55.418Z,98733.34
2022-08-26T21:42:27.178Z,98737.47
2022-08-26T21:44:55.908Z,98731.50
2022-08-26T21:47:25.514Z,98734.25
2022-08-26T21:49:55.087Z,98735.72
2022-08-26T21:52:23.890Z,98739.78
2022-08-26T21:54:52.364Z,98737.47
2022-08-26T21:57:20.975Z,98734.63
2022-08-26T21:59:52.471Z,98737.47
2022-08-26T22:02:21.657Z,98737.03
2022-08-26T22:04:50.388Z,98736.88
2022-08-26T22:07:19.884Z,98740.97
2022-08-26T22:09:48.671Z,98738.84
2022-08-26T22:12:18.403Z,98732.97
2022-08-26T22:14:47.143Z,98738.84
2022-08-26T22:17:17.139Z,98730.28
2022-08-26T22:19:46.826Z,98732.66
2022-08-26T22:22:16.193Z,98728.25
2022-08-26T22:24:44.812Z,98728.25
2022-08-26T22:27:15.008Z,98734.72
2022-08-26T22:29:43.584Z,98726.06
2022-08-26T22:32:12.145Z,98720.88
2022-08-26T22:34:42.655Z,98718.16
2022-08-26T22:37:11.537Z,98718.34
2022-08-26T22:39:40.092Z,98723.25
2022-08-26T22:42:08.840Z,98726.44
2022-08-26T22:44:37.631Z,98720.56
2022-08-26T22:47:06.466Z,98714.63
2022-08-26T22:49:35.279Z,98714.78
2022-08-26T22:52:05.405Z,98719.88
2022-08-26T22:54:34.007Z,98719.34
2022-08-26T22:57:02.745Z,98717.47
2022-08-26T22:59:31.206Z,98708.88
2022-08-26T23:01:59.771Z,98714.50
2022-08-26T23:04:28.728Z,98710.72
2022-08-26T23:06:57.253Z,98720.81
2022-08-26T23:09:27.140Z,98718.66
2022-08-26T23:11:56.495Z,98722.97
2022-08-26T23:14:26.426Z,98717.00
2022-08-26T23:16:54.991Z,98722.97
2022-08-26T23:19:24.179Z,98719.78
2022-08-26T23:21:53.006Z,98720.31
2022-08-26T23:24:21.498Z,98711.84
2022-08-26T23:26:51.538Z,98715.22
2022-08-26T23:29:19.937Z,98715.31
2022-08-26T23:31:48.432Z,98706.38
2022-08-26T23:34:34.271Z,98705.16
2022-08-26T23:37:06.235Z,98703.63
2022-08-26T23:39:36.698Z,98704.47
2022-08-26T23:42:08.169Z,98708.38
2022-08-26T23:44:37.088Z,98705.09
2022-08-26T23:47:06.233Z,98711.72
2022-08-26T23:49:35.338Z,98706.75
2022-08-26T23:52:23.200Z,98711.22
2022-08-26T23:54:52.867Z,98701.84
2022-08-26T23:57:24.728Z,98701.44
2022-08-26T23:59:54.048Z,98698.91
